createdAt,value
2023-05-02T00:01:56.984Z,7.60
2023-05-02T00:04:43.909Z,6.97
2023-05-02T00:07:34.023Z,7.07
2023-05-02T00:10:20.766Z,7.77
2023-05-02T00:13:07.903Z,7.17
2023-05-02T00:15:54.610Z,8.10
2023-05-02T00:18:45.804Z,7.10
2023-05-02T00:21:33.645Z,6.57
2023-05-02T00:24:20.303Z,7.20
2023-05-02T00:27:07.625Z,6.67
2023-05-02T00:29:55.159Z,6.27
2023-05-02T00:32:42.270Z,7.03
2023-05-02T00:35:30.508Z,6.63
2023-05-02T00:38:17.250Z,6.60
2023-05-02T00:41:05.533Z,6.23
2023-05-02T00:43:52.246Z,6.33
2023-05-02T00:46:39.315Z,6.60
2023-05-02T00:49:26.147Z,6.10
2023-05-02T00:52:14.242Z,6.13
2023-05-02T00:55:03.431Z,6.43
2023-05-02T00:57:50.189Z,6.27
2023-05-02T01:00:50.626Z,6.33
2023-05-02T01:03:42.779Z,6.67
2023-05-02T01:06:37.921Z,6.60
2023-05-02T01:09:41.162Z,6.37
2023-05-02T01:12:32.368Z,6.60
2023-05-02T01:15:23.513Z,6.73
2023-05-02T01:18:13.281Z,7.00
2023-05-02T01:21:04.352Z,6.50
2023-05-02T01:24:02.654Z,6.73
2023-05-02T01:26:57.923Z,6.17
2023-05-02T01:29:48.532Z,6.17
2023-05-02T01:32:38.466Z,5.97
2023-05-02T01:35:27.643Z,5.50
2023-05-02T01:38:16.561Z,5.90
2023-05-02T01:41:07.364Z,6.30
2023-05-02T01:43:56.887Z,5.57
2023-05-02T01:46:46.326Z,5.40
2023-05-02T01:49:35.937Z,10.57
2023-05-02T01:52:24.806Z,5.67
2023-05-02T01:55:15.418Z,5.50
2023-05-02T01:58:03.309Z,5.80
2023-05-02T02:00:51.541Z,5.93
2023-05-02T02:03:39.941Z,5.67
2023-05-02T02:06:27.654Z,5.37
2023-05-02T02:09:14.901Z,5.27
2023-05-02T02:12:06.882Z,5.10
2023-05-02T02:14:58.456Z,5.03
2023-05-02T02:17:48.951Z,5.30
2023-05-02T02:20:37.574Z,4.63
2023-05-02T02:23:28.421Z,4.77
2023-05-02T02:26:15.742Z,5.40
2023-05-02T02:29:02.643Z,4.70
2023-05-02T02:31:49.586Z,4.73
2023-05-02T02:34:36.342Z,4.83
2023-05-02T02:37:30.384Z,4.80
2023-05-02T02:40:24.512Z,4.30
2023-05-02T02:43:18.577Z,4.10
2023-05-02T02:46:18.163Z,4.47
2023-05-02T02:49:19.534Z,4.27
2023-05-02T02:52:12.363Z,4.50
2023-05-02T02:55:08.385Z,4.17
2023-05-02T02:58:01.627Z,4.97
2023-05-02T03:00:49.808Z,4.80
2023-05-02T03:03:37.683Z,4.23
2023-05-02T03:06:25.368Z,4.30
2023-05-02T03:09:17.875Z,4.50
2023-05-02T03:12:07.656Z,4.47
2023-05-02T03:15:09.252Z,3.93
2023-05-02T03:17:55.899Z,4.40
2023-05-02T03:20:42.591Z,4.23
2023-05-02T03:23:29.826Z,4.20
2023-05-02T03:26:17.531Z,5.07
2023-05-02T03:29:06.224Z,3.90
2023-05-02T03:31:58.039Z,4.30
2023-05-02T03:34:45.474Z,4.37
2023-05-02T03:37:31.953Z,3.90
2023-05-02T03:40:21.941Z,4.23
2023-05-02T03:43:08.862Z,4.50
2023-05-02T03:45:57.070Z,4.70
2023-05-02T03:48:46.493Z,4.27
2023-05-02T03:51:33.945Z,4.80
2023-05-02T03:54:20.448Z,5.07
2023-05-02T03:57:08.174Z,4.30
2023-05-02T03:59:55.442Z,4.00
2023-05-02T04:02:48.722Z,4.40
2023-05-02T04:05:39.239Z,4.23
2023-05-02T04:08:26.328Z,4.70
2023-05-02T04:11:13.421Z,4.00
2023-05-02T04:14:00.500Z,4.70
2023-05-02T04:16:50.930Z,4.43
2023-05-02T04:19:44.453Z,4.47
2023-05-02T04:22:33.250Z,4.30
2023-05-02T04:25:23.456Z,3.57
2023-05-02T04:28:12.403Z,3.90
2023-05-02T04:30:59.294Z,4.10
2023-05-02T04:33:48.976Z,3.60
2023-05-02T04:36:40.572Z,4.50
2023-05-02T04:39:30.962Z,4.20
2023-05-02T04:42:21.855Z,3.90
2023-05-02T04:45:16.664Z,3.70
2023-05-02T04:48:05.587Z,3.90
2023-05-02T04:50:54.173Z,3.20
2023-05-02T04:53:42.860Z,6.53
2023-05-02T04:56:29.310Z,3.73
2023-05-02T04:59:16.011Z,4.10
2023-05-02T05:02:03.129Z,3.23
2023-05-02T05:04:50.030Z,3.23
2023-05-02T05:07:38.130Z,4.40
2023-05-02T05:10:27.838Z,3.70
2023-05-02T05:13:14.921Z,3.20
2023-05-02T05:16:04.088Z,3.33
2023-05-02T05:18:54.006Z,3.17
2023-05-02T05:21:40.777Z,3.10
2023-05-02T05:24:28.359Z,3.47
2023-05-02T05:27:18.435Z,4.03
2023-05-02T05:30:05.732Z,3.30
2023-05-02T05:32:53.194Z,4.03
2023-05-02T05:35:41.155Z,4.53
2023-05-02T05:38:28.043Z,3.60
2023-05-02T05:41:14.770Z,3.43
2023-05-02T05:44:07.781Z,3.40
2023-05-02T05:46:54.831Z,3.93
2023-05-02T05:49:43.238Z,3.60
2023-05-02T05:52:30.436Z,4.20
2023-05-02T05:55:19.509Z,4.17
2023-05-02T05:58:07.264Z,8.67
2023-05-02T06:00:56.843Z,3.73
2023-05-02T06:03:43.749Z,3.77
2023-05-02T06:06:31.830Z,4.50
2023-05-02T06:09:18.787Z,3.90
2023-05-02T06:12:05.750Z,4.13
2023-05-02T06:14:54.098Z,4.30
2023-05-02T06:17:42.687Z,4.50
2023-05-02T06:20:29.524Z,4.77
2023-05-02T06:23:16.346Z,4.60
2023-05-02T06:26:04.273Z,5.00
2023-05-02T06:28:50.905Z,4.57
2023-05-02T06:31:37.861Z,5.83
2023-05-02T06:34:26.071Z,4.70
2023-05-02T06:37:12.849Z,4.77
2023-05-02T06:39:59.741Z,4.90
2023-05-02T06:42:48.229Z,4.90
2023-05-02T06:45:35.300Z,5.23
2023-05-02T06:48:22.619Z,5.10
2023-05-02T06:51:11.137Z,5.10
2023-05-02T06:53:57.681Z,5.13
2023-05-02T06:56:44.643Z,5.70
2023-05-02T06:59:31.469Z,5.27
2023-05-02T07:02:18.284Z,4.87
2023-05-02T07:05:05.134Z,4.57
2023-05-02T07:07:52.890Z,4.70
2023-05-02T07:10:39.661Z,4.00
2023-05-02T07:13:26.316Z,4.90
2023-05-02T07:16:13.301Z,3.93
2023-05-02T07:19:00.256Z,3.53
2023-05-02T07:21:46.713Z,3.87
2023-05-02T07:24:35.119Z,3.70
2023-05-02T07:27:21.654Z,2.83
2023-05-02T07:30:09.588Z,3.20
2023-05-02T07:32:56.024Z,3.20
2023-05-02T07:35:43.482Z,2.87
2023-05-02T07:38:29.988Z,2.70
2023-05-02T07:41:18.169Z,2.70
2023-05-02T07:44:05.186Z,3.10
2023-05-02T07:46:51.808Z,2.57
2023-05-02T07:49:38.552Z,2.40
2023-05-02T07:52:25.890Z,2.70
2023-05-02T07:55:12.871Z,2.40
2023-05-02T07:58:01.072Z,2.33
2023-05-02T08:00:47.542Z,2.30
2023-05-02T08:03:34.770Z,2.00
2023-05-02T08:06:22.644Z,1.70
2023-05-02T08:09:09.608Z,2.10
2023-05-02T08:11:56.572Z,2.10
2023-05-02T08:14:44.673Z,2.10
2023-05-02T08:17:31.937Z,1.80
2023-05-02T08:20:18.564Z,1.83
2023-05-02T08:23:05.325Z,2.03
2023-05-02T08:25:52.009Z,2.40
2023-05-02T08:28:38.707Z,2.50
2023-05-02T08:31:27.069Z,2.63
2023-05-02T08:34:13.600Z,3.30
2023-05-02T08:37:00.319Z,3.37
2023-05-02T08:39:47.161Z,3.07
2023-05-02T08:42:34.992Z,3.10
2023-05-02T08:45:22.806Z,2.90
2023-05-02T08:48:13.463Z,3.50
2023-05-02T08:51:00.800Z,3.60
2023-05-02T08:53:48.068Z,3.57
2023-05-02T08:56:34.691Z,3.40
2023-05-02T08:59:21.650Z,3.00
2023-05-02T09:02:29.164Z,3.60
2023-05-02T09:05:21.544Z,3.30
2023-05-02T09:08:08.870Z,3.37
2023-05-02T09:10:56.062Z,3.30
2023-05-02T09:13:44.079Z,3.30
2023-05-02T09:16:31.286Z,3.20
2023-05-02T09:19:25.980Z,2.63
2023-05-02T09:22:24.332Z,2.93
2023-05-02T09:25:11.876Z,3.10
2023-05-02T09:28:01.563Z,3.13
2023-05-02T09:30:48.290Z,2.60
2023-05-02T09:33:35.082Z,3.40
2023-05-02T09:36:22.809Z,3.33
2023-05-02T09:39:13.675Z,2.93
2023-05-02T09:42:01.532Z,3.30
2023-05-02T09:44:48.978Z,3.40
2023-05-02T09:47:36.611Z,3.27
2023-05-02T09:50:39.563Z,4.00
2023-05-02T09:53:27.324Z,3.33
2023-05-02T09:56:15.941Z,5.07
2023-05-02T09:59:16.170Z,5.43
2023-05-02T10:02:05.440Z,5.23
2023-05-02T10:04:54.834Z,5.33
2023-05-02T10:07:41.562Z,5.13
2023-05-02T10:10:29.190Z,5.00
2023-05-02T10:13:20.717Z,4.20
2023-05-02T10:16:08.480Z,4.07
2023-05-02T10:19:04.260Z,3.80
2023-05-02T10:21:52.511Z,3.63
2023-05-02T10:24:41.256Z,3.20
2023-05-02T10:27:28.277Z,3.33
2023-05-02T10:30:20.470Z,2.60
2023-05-02T10:33:07.805Z,2.60
2023-05-02T10:35:54.749Z,2.33
2023-05-02T10:38:42.584Z,2.43
2023-05-02T10:41:33.273Z,2.03
2023-05-02T10:44:33.206Z,1.73
2023-05-02T10:47:22.594Z,1.77
2023-05-02T10:50:12.362Z,2.00
2023-05-02T10:52:59.372Z,2.00
2023-05-02T10:55:46.338Z,2.30
2023-05-02T10:58:33.244Z,2.10
2023-05-02T11:01:42.960Z,1.80
2023-05-02T11:05:08.101Z,1.73
2023-05-02T11:08:28.264Z,1.93
2023-05-02T11:12:02.987Z,2.40
2023-05-02T11:14:51.101Z,3.13
2023-05-02T11:18:02.562Z,2.77
2023-05-02T11:20:49.449Z,2.63
2023-05-02T11:23:37.322Z,2.80
2023-05-02T11:26:26.279Z,2.67
2023-05-02T11:29:15.807Z,2.53
2023-05-02T11:32:10.952Z,2.63
2023-05-02T11:34:58.747Z,2.60
2023-05-02T11:37:54.051Z,2.97
2023-05-02T11:40:41.115Z,2.70
2023-05-02T11:43:31.910Z,2.40
2023-05-02T11:46:21.178Z,2.67
2023-05-02T11:49:11.001Z,2.13
2023-05-02T11:52:00.324Z,2.67
2023-05-02T11:54:47.503Z,2.60
2023-05-02T11:57:34.896Z,2.50
2023-05-02T12:00:28.885Z,2.60
2023-05-02T12:03:23.599Z,2.57
2023-05-02T12:06:13.464Z,2.27
2023-05-02T12:09:10.331Z,2.37
2023-05-02T12:11:57.347Z,2.67
2023-05-02T12:14:44.973Z,3.13
2023-05-02T12:17:32.373Z,2.43
2023-05-02T12:20:19.373Z,2.20
2023-05-02T12:23:10.108Z,2.20
2023-05-02T12:25:56.801Z,2.77
2023-05-02T12:28:50.459Z,2.50
2023-05-02T12:31:37.024Z,2.07
2023-05-02T12:34:34.191Z,2.70
2023-05-02T12:37:23.662Z,2.63
2023-05-02T12:40:18.162Z,2.70
2023-05-02T12:43:08.223Z,2.77
2023-05-02T12:46:12.494Z,2.30
2023-05-02T12:49:08.332Z,2.40
2023-05-02T12:51:56.389Z,2.27
2023-05-02T12:54:44.493Z,2.37
2023-05-02T12:57:33.002Z,2.40
2023-05-02T13:00:19.725Z,2.30
2023-05-02T13:03:07.039Z,2.27
2023-05-02T13:05:55.519Z,2.50
2023-05-02T13:08:42.222Z,2.80
2023-05-02T13:11:29.431Z,2.63
2023-05-02T13:14:17.829Z,2.27
2023-05-02T13:17:04.938Z,2.63
2023-05-02T13:20:00.693Z,2.73
2023-05-02T13:22:48.238Z,2.63
2023-05-02T13:25:35.137Z,2.33
2023-05-02T13:28:21.884Z,3.07
2023-05-02T13:31:10.316Z,2.60
2023-05-02T13:33:57.061Z,2.70
2023-05-02T13:36:46.408Z,3.00
2023-05-02T13:39:33.321Z,2.60
2023-05-02T13:42:20.537Z,2.93
2023-05-02T13:45:08.562Z,2.80
2023-05-02T13:47:56.941Z,2.90
2023-05-02T13:50:43.520Z,2.17
2023-05-02T13:53:30.344Z,2.50
2023-05-02T13:56:17.124Z,3.10
2023-05-02T13:59:06.097Z,2.77
2023-05-02T14:01:54.142Z,3.13
2023-05-02T14:04:42.228Z,3.33
2023-05-02T14:07:29.524Z,2.70
2023-05-02T14:10:16.416Z,2.97
2023-05-02T14:13:03.272Z,2.83
2023-05-02T14:15:50.057Z,3.23
2023-05-02T14:18:37.000Z,3.27
2023-05-02T14:21:25.339Z,2.90
2023-05-02T14:24:14.948Z,2.73
2023-05-02T14:27:01.585Z,2.50
2023-05-02T14:29:49.044Z,2.53
2023-05-02T14:32:36.005Z,2.70
2023-05-02T14:35:23.056Z,2.93
2023-05-02T14:38:11.734Z,2.90
2023-05-02T14:40:58.587Z,2.50
2023-05-02T14:43:45.349Z,2.97
2023-05-02T14:46:32.160Z,3.00
2023-05-02T14:49:19.188Z,2.80
2023-05-02T14:52:05.978Z,2.87
2023-05-02T14:54:53.943Z,3.43
2023-05-02T14:57:40.666Z,2.83
2023-05-02T15:00:27.491Z,2.70
2023-05-02T15:03:14.445Z,3.23
2023-05-02T15:06:01.649Z,3.00
2023-05-02T15:08:50.274Z,2.53
2023-05-02T15:11:38.363Z,3.07
2023-05-02T15:14:25.221Z,3.00
2023-05-02T15:17:12.067Z,3.10
2023-05-02T15:19:59.037Z,2.67
2023-05-02T15:22:45.623Z,2.57
2023-05-02T15:25:32.699Z,2.23
2023-05-02T15:28:20.666Z,3.10
2023-05-02T15:31:07.293Z,2.63
2023-05-02T15:33:53.963Z,2.30
2023-05-02T15:36:44.018Z,2.40
2023-05-02T15:39:30.753Z,2.30
2023-05-02T15:42:17.588Z,2.30
2023-05-02T15:45:06.839Z,2.90
2023-05-02T15:47:53.349Z,2.30
2023-05-02T15:50:41.785Z,2.80
2023-05-02T15:53:28.623Z,3.03
2023-05-02T15:56:15.852Z,2.93
2023-05-02T15:59:02.705Z,2.63
2023-05-02T16:01:50.854Z,2.50
2023-05-02T16:04:37.763Z,2.60
2023-05-02T16:07:24.545Z,2.30
2023-05-02T16:10:11.794Z,2.80
2023-05-02T16:13:04.127Z,4.33
2023-05-02T16:15:52.165Z,2.20
2023-05-02T16:18:39.996Z,3.00
2023-05-02T16:21:27.083Z,2.70
2023-05-02T16:24:13.682Z,2.43
2023-05-02T16:27:00.827Z,2.60
2023-05-02T16:29:48.572Z,2.77
2023-05-02T16:32:35.378Z,3.00
2023-05-02T16:35:23.554Z,2.93
2023-05-02T16:38:10.333Z,2.50
2023-05-02T16:40:57.431Z,2.50
2023-05-02T16:43:43.871Z,2.80
2023-05-02T16:46:32.277Z,3.13
2023-05-02T16:49:21.129Z,2.90
2023-05-02T16:52:09.667Z,3.37
2023-05-02T16:54:56.775Z,2.63
2023-05-02T16:57:43.484Z,2.80
2023-05-02T17:00:30.173Z,2.70
2023-05-02T17:03:16.911Z,2.80
2023-05-02T17:06:03.676Z,2.83
2023-05-02T17:08:51.923Z,2.80
2023-05-02T17:11:38.426Z,2.73
2023-05-02T17:14:25.216Z,2.93
2023-05-02T17:17:12.080Z,2.60
2023-05-02T17:19:58.965Z,2.73
2023-05-02T17:22:45.635Z,2.67
2023-05-02T17:25:34.041Z,2.70
2023-05-02T17:28:21.229Z,2.70
2023-05-02T17:31:08.631Z,3.03
2023-05-02T17:33:55.760Z,2.73
2023-05-02T17:36:43.658Z,2.50
2023-05-02T17:39:30.296Z,2.80
2023-05-02T17:42:18.451Z,2.70
2023-05-02T17:45:07.455Z,2.43
2023-05-02T17:47:54.155Z,2.60
2023-05-02T17:50:41.441Z,2.60
2023-05-02T17:53:27.987Z,2.30
2023-05-02T17:56:18.717Z,2.67
2023-05-02T17:59:06.606Z,2.60
2023-05-02T18:01:53.538Z,2.90
2023-05-02T18:04:42.748Z,2.60
2023-05-02T18:07:31.735Z,2.53
2023-05-02T18:10:18.528Z,2.50
2023-05-02T18:13:04.964Z,2.73
2023-05-02T18:15:58.007Z,3.00
2023-05-02T18:18:44.460Z,2.70
2023-05-02T18:21:34.878Z,2.70
2023-05-02T18:24:21.772Z,3.20
2023-05-02T18:27:08.468Z,2.80
2023-05-02T18:29:55.547Z,2.80
2023-05-02T18:32:43.586Z,3.20
2023-05-02T18:35:30.244Z,3.00
2023-05-02T18:38:17.580Z,2.90
2023-05-02T18:41:04.375Z,2.57
2023-05-02T18:43:51.209Z,3.67
2023-05-02T18:46:37.931Z,4.00
2023-05-02T18:49:26.297Z,2.70
2023-05-02T18:52:13.582Z,3.00
2023-05-02T18:55:02.039Z,3.30
2023-05-02T18:57:48.921Z,2.90
2023-05-02T19:00:37.199Z,2.93
2023-05-02T19:03:25.499Z,3.40
2023-05-02T19:06:14.250Z,2.97
2023-05-02T19:09:00.913Z,3.20
2023-05-02T19:11:47.716Z,2.50
2023-05-02T19:14:35.946Z,3.30
2023-05-02T19:17:25.715Z,3.20
2023-05-02T19:20:13.006Z,2.80
2023-05-02T19:23:18.496Z,2.60
2023-05-02T19:26:11.830Z,2.60
2023-05-02T19:28:58.449Z,2.70
2023-05-02T19:31:50.642Z,2.53
2023-05-02T19:34:37.747Z,3.53
2023-05-02T19:37:24.145Z,3.73
2023-05-02T19:40:13.653Z,3.20
2023-05-02T19:43:00.337Z,3.03
2023-05-02T19:45:47.135Z,3.13
2023-05-02T19:48:33.913Z,3.57
2023-05-02T19:51:25.310Z,3.30
2023-05-02T19:54:11.909Z,3.00
2023-05-02T19:56:59.890Z,3.27
2023-05-02T19:59:46.673Z,2.87
2023-05-02T20:02:33.750Z,3.37
2023-05-02T20:05:20.614Z,3.43
2023-05-02T20:08:07.071Z,2.93
2023-05-02T20:10:53.907Z,3.33
2023-05-02T20:13:42.108Z,3.03
2023-05-02T20:16:31.268Z,2.90
2023-05-02T20:19:19.918Z,3.20
2023-05-02T20:22:07.497Z,3.77
2023-05-02T20:24:54.289Z,3.27
2023-05-02T20:27:41.013Z,3.37
2023-05-02T20:30:28.996Z,2.80
2023-05-02T20:33:17.089Z,3.00
2023-05-02T20:36:05.091Z,3.30
2023-05-02T20:38:51.494Z,2.70
2023-05-02T20:41:38.480Z,3.20
2023-05-02T20:44:26.452Z,3.30
2023-05-02T20:47:14.211Z,3.40
2023-05-02T20:50:01.469Z,3.07
2023-05-02T20:52:50.591Z,2.77
2023-05-02T20:55:37.421Z,2.57
2023-05-02T20:58:24.109Z,3.20
2023-05-02T21:01:11.629Z,3.13
2023-05-02T21:03:59.898Z,2.97
2023-05-02T21:06:48.681Z,2.90
2023-05-02T21:09:36.440Z,3.40
2023-05-02T21:12:26.511Z,3.73
2023-05-02T21:15:14.429Z,2.90
2023-05-02T21:18:02.854Z,2.70
2023-05-02T21:20:55.263Z,2.70
2023-05-02T21:23:42.955Z,2.60
2023-05-02T21:26:31.103Z,2.10
2023-05-02T21:29:26.226Z,2.50
2023-05-02T21:32:14.307Z,2.50
2023-05-02T21:35:05.205Z,2.57
2023-05-02T21:37:54.487Z,2.40
2023-05-02T21:40:44.707Z,2.50
2023-05-02T21:43:36.838Z,2.43
2023-05-02T21:46:24.721Z,2.20
2023-05-02T21:49:11.983Z,2.27
2023-05-02T21:51:59.537Z,2.40
2023-05-02T21:54:50.119Z,2.20
2023-05-02T21:57:36.775Z,2.23
2023-05-02T22:00:23.684Z,2.40
2023-05-02T22:03:11.926Z,2.57
2023-05-02T22:06:04.949Z,2.10
2023-05-02T22:08:51.764Z,2.30
2023-05-02T22:11:42.335Z,2.23
2023-05-02T22:14:37.610Z,2.77
2023-05-02T22:17:31.824Z,2.60
2023-05-02T22:20:18.552Z,2.40
2023-05-02T22:23:05.410Z,2.60
2023-05-02T22:25:52.291Z,2.77
2023-05-02T22:28:40.162Z,2.27
2023-05-02T22:31:27.663Z,2.30
2023-05-02T22:34:14.365Z,2.83
2023-05-02T22:37:01.369Z,2.50
2023-05-02T22:39:48.068Z,2.13
2023-05-02T22:42:34.816Z,2.20
2023-05-02T22:45:23.017Z,2.27
2023-05-02T22:48:09.903Z,2.93
2023-05-02T22:50:56.608Z,3.03
2023-05-02T22:53:43.290Z,2.30
2023-05-02T22:56:30.141Z,2.90
2023-05-02T22:59:16.874Z,2.87
2023-05-02T23:02:05.188Z,2.50
2023-05-02T23:04:52.113Z,2.90
2023-05-02T23:07:38.690Z,2.27
2023-05-02T23:10:25.526Z,2.13
2023-05-02T23:13:12.296Z,2.03
2023-05-02T23:15:59.197Z,2.03
2023-05-02T23:18:48.279Z,2.20
2023-05-02T23:21:34.904Z,2.40
2023-05-02T23:24:31.764Z,2.40
2023-05-02T23:27:21.063Z,2.70
2023-05-02T23:30:10.808Z,2.20
2023-05-02T23:32:59.745Z,2.40
2023-05-02T23:35:51.531Z,2.30
2023-05-02T23:38:40.250Z,2.30
2023-05-02T23:41:28.790Z,2.00
2023-05-02T23:44:16.865Z,2.57
2023-05-02T23:47:05.335Z,2.13
2023-05-02T23:49:53.265Z,2.20
2023-05-02T23:52:43.030Z,2.03
2023-05-02T23:55:29.833Z,2.70
2023-05-02T23:58:16.596Z,2.50
